Terminal Aerodrome Forecast
Issued by NWS King Salmon, AK

Home | Current Version | Previous Version | Text Only | Print | Product List | Glossary On
Versions: 1 2 3 4 5 6 7 8 9 10 11 12 13 14 15 16 17 18 19 20 21 22 23 24 25 26
831
FTAK31 PANC 281124
TAFAKN
TAF
PAKN 281124Z 2812/2912 16005KT P6SM VCSH SCT025 OVC050
     FM282200 15008KT P6SM -SHRA BKN025 OVC050
     FM290500 13007KT P6SM VCSH SCT025 BKN050=

USA.gov is the U.S. government's official web portal to all federal, state and local government web resources and services.